createdAt,value
2023-03-12T00:00:48.487Z,-0.79
2023-03-12T00:03:17.949Z,-0.81
2023-03-12T00:05:44.738Z,-0.80
2023-03-12T00:08:11.544Z,-0.74
2023-03-12T00:10:38.701Z,-0.73
2023-03-12T00:13:05.236Z,-0.78
2023-03-12T00:15:32.030Z,-0.78
2023-03-12T00:17:58.583Z,-0.75
2023-03-12T00:20:26.420Z,-0.67
2023-03-12T00:22:52.978Z,-0.66
2023-03-12T00:25:21.243Z,-0.66
2023-03-12T00:27:48.223Z,-0.68
2023-03-12T00:30:14.816Z,-0.71
2023-03-12T00:32:43.827Z,-0.73
2023-03-12T00:35:10.609Z,-0.71
2023-03-12T00:37:37.701Z,-0.73
2023-03-12T00:40:10.994Z,-0.77
2023-03-12T00:42:38.161Z,-0.79
2023-03-12T00:45:05.218Z,-0.82
2023-03-12T00:47:32.642Z,-0.79
2023-03-12T00:49:59.167Z,-0.75
2023-03-12T00:52:25.710Z,-0.75
2023-03-12T00:54:52.381Z,-0.71
2023-03-12T00:57:18.958Z,-0.64
2023-03-12T00:59:46.631Z,-0.63
2023-03-12T01:02:13.290Z,-0.64
2023-03-12T01:04:39.868Z,-0.73
2023-03-12T01:07:06.538Z,-0.74
2023-03-12T01:09:33.173Z,-0.74
2023-03-12T01:11:59.712Z,-0.71
2023-03-12T01:14:26.798Z,-0.68
2023-03-12T01:16:53.862Z,-0.68
2023-03-12T01:19:20.464Z,-0.63
2023-03-12T01:21:46.976Z,-0.60
2023-03-12T01:24:13.476Z,-0.56
2023-03-12T01:26:40.082Z,-0.54
2023-03-12T01:29:06.854Z,-0.68
2023-03-12T01:31:33.512Z,-0.66
2023-03-12T01:34:00.029Z,-0.59
2023-03-12T01:36:28.402Z,-0.55
2023-03-12T01:38:56.327Z,-0.56
2023-03-12T01:41:23.628Z,-0.51
2023-03-12T01:43:50.960Z,-0.54
2023-03-12T01:46:26.719Z,-0.52
2023-03-12T01:48:58.681Z,-0.47
2023-03-12T01:51:27.658Z,-0.41
2023-03-12T01:53:56.037Z,-0.42
2023-03-12T01:56:22.652Z,-0.38
2023-03-12T01:58:51.142Z,-0.38
2023-03-12T02:01:18.076Z,-0.34
2023-03-12T02:03:45.308Z,-0.38
2023-03-12T02:06:13.637Z,-0.30
2023-03-12T02:08:42.170Z,-0.29
2023-03-12T02:11:08.891Z,-0.24
2023-03-12T02:13:36.645Z,-0.26
2023-03-12T02:16:03.618Z,-0.26
2023-03-12T02:18:30.754Z,-0.30
2023-03-12T02:21:01.321Z,-0.25
2023-03-12T02:23:30.607Z,-0.22
2023-03-12T02:25:58.230Z,-0.22
2023-03-12T02:28:26.095Z,-0.19
2023-03-12T02:30:52.882Z,-0.19
2023-03-12T02:33:19.851Z,-0.17
2023-03-12T02:35:47.094Z,-0.16
2023-03-12T02:38:32.950Z,-0.15
2023-03-12T02:41:00.746Z,-0.08
2023-03-12T02:43:27.445Z,-0.10
2023-03-12T02:45:54.486Z,-0.13
2023-03-12T02:48:22.693Z,0.02
2023-03-12T02:50:49.335Z,0.02
2023-03-12T02:53:16.066Z,0.02
2023-03-12T02:55:42.680Z,0.07
2023-03-12T02:58:09.261Z,0.09
2023-03-12T03:00:36.894Z,-0.02
2023-03-12T03:03:03.512Z,-0.05
2023-03-12T03:05:30.013Z,-0.05
2023-03-12T03:07:56.526Z,-0.08
2023-03-12T03:10:23.114Z,-0.11
2023-03-12T03:12:50.198Z,-0.18
2023-03-12T03:15:17.247Z,-0.18
2023-03-12T03:17:44.107Z,-0.33
2023-03-12T03:20:12.055Z,-0.33
2023-03-12T03:22:38.773Z,-0.32
2023-03-12T03:25:06.536Z,-0.31
2023-03-12T03:27:33.074Z,-0.27
2023-03-12T03:29:59.726Z,-0.31
2023-03-12T03:32:26.819Z,-0.27
2023-03-12T03:34:53.545Z,-0.29
2023-03-12T03:37:20.054Z,-0.33
2023-03-12T03:39:46.557Z,-0.27
2023-03-12T03:42:13.380Z,-0.20
2023-03-12T03:44:42.624Z,-0.17
2023-03-12T03:47:09.234Z,-0.20
2023-03-12T03:49:35.772Z,-0.11
2023-03-12T03:52:02.604Z,-0.04
2023-03-12T03:54:34.105Z,0.03
2023-03-12T03:57:01.428Z,0.07
2023-03-12T03:59:31.340Z,0.11
2023-03-12T04:01:58.217Z,0.12
2023-03-12T04:04:25.357Z,-0.17
2023-03-12T04:06:52.060Z,-0.09
2023-03-12T04:09:18.784Z,-0.10
2023-03-12T04:11:45.530Z,-0.07
2023-03-12T04:14:13.426Z,0.01
2023-03-12T04:16:43.555Z,0.08
2023-03-12T04:19:10.170Z,0.18
2023-03-12T04:21:39.569Z,0.20
2023-03-12T04:24:07.057Z,0.26
2023-03-12T04:26:35.009Z,0.30
2023-03-12T04:29:02.899Z,0.33
2023-03-12T04:31:29.934Z,0.39
2023-03-12T04:33:56.755Z,0.44
2023-03-12T04:36:24.730Z,0.49
2023-03-12T04:38:52.687Z,0.52
2023-03-12T04:41:23.863Z,0.50
2023-03-12T04:44:02.591Z,0.49
2023-03-12T04:46:29.450Z,0.39
2023-03-12T04:48:56.079Z,0.46
2023-03-12T04:51:22.579Z,0.55
2023-03-12T04:53:49.216Z,0.58
2023-03-12T04:56:15.962Z,0.59
2023-03-12T04:58:43.555Z,0.64
2023-03-12T05:01:20.054Z,0.68
2023-03-12T05:03:46.650Z,0.67
2023-03-12T05:06:13.609Z,0.69
2023-03-12T05:08:40.318Z,0.75
2023-03-12T05:11:07.307Z,0.77
2023-03-12T05:13:33.914Z,0.78
2023-03-12T05:16:00.868Z,0.81
2023-03-12T05:18:28.073Z,0.75
2023-03-12T05:20:58.664Z,0.81
2023-03-12T05:23:26.061Z,0.82
2023-03-12T05:25:52.648Z,0.84
2023-03-12T05:28:20.291Z,0.85
2023-03-12T05:30:47.085Z,0.86
2023-03-12T05:33:13.797Z,0.90
2023-03-12T05:35:40.395Z,0.92
2023-03-12T05:38:06.962Z,0.96
2023-03-12T05:40:33.834Z,0.96
2023-03-12T05:43:00.412Z,1.02
2023-03-12T05:45:27.268Z,1.05
2023-03-12T05:47:56.228Z,1.06
2023-03-12T05:50:22.810Z,1.05
2023-03-12T05:52:49.509Z,1.07
2023-03-12T05:55:16.197Z,1.05
2023-03-12T05:57:43.188Z,1.05
2023-03-12T06:00:10.409Z,1.06
2023-03-12T06:02:50.591Z,1.08
2023-03-12T06:05:17.181Z,1.09
2023-03-12T06:07:43.890Z,1.06
2023-03-12T06:10:10.873Z,1.05
2023-03-12T06:12:37.450Z,1.08
2023-03-12T06:15:04.688Z,1.13
2023-03-12T06:17:32.480Z,1.14
2023-03-12T06:19:59.234Z,1.09
2023-03-12T06:22:25.892Z,1.04
2023-03-12T06:24:52.488Z,0.98
2023-03-12T06:27:19.318Z,0.94
2023-03-12T06:29:47.330Z,1.00
2023-03-12T06:32:14.314Z,1.04
2023-03-12T06:34:41.063Z,1.04
2023-03-12T06:37:07.572Z,1.08
2023-03-12T06:39:34.662Z,1.00
2023-03-12T06:42:01.199Z,1.02
2023-03-12T06:44:27.785Z,1.10
2023-03-12T06:46:54.343Z,1.11
2023-03-12T06:49:20.934Z,1.16
2023-03-12T06:51:47.734Z,1.14
2023-03-12T06:54:14.323Z,1.12
2023-03-12T06:56:40.885Z,1.13
2023-03-12T06:59:07.526Z,1.19
2023-03-12T07:01:34.052Z,1.22
2023-03-12T07:04:00.647Z,1.24
2023-03-12T07:06:27.328Z,1.30
2023-03-12T07:08:54.069Z,1.35
2023-03-12T07:11:20.624Z,1.28
2023-03-12T07:13:47.228Z,1.26
2023-03-12T07:16:14.087Z,1.26
2023-03-12T07:18:40.720Z,1.18
2023-03-12T07:21:07.359Z,1.15
2023-03-12T07:23:33.910Z,1.14
2023-03-12T07:26:00.456Z,1.16
2023-03-12T07:28:27.061Z,1.23
2023-03-12T07:30:53.591Z,1.28
2023-03-12T07:33:21.254Z,1.35
2023-03-12T07:35:50.965Z,1.39
2023-03-12T07:38:18.113Z,1.45
2023-03-12T07:40:44.959Z,1.51
2023-03-12T07:43:12.836Z,1.59
2023-03-12T07:45:40.999Z,1.74
2023-03-12T07:48:07.733Z,1.85
2023-03-12T07:50:34.720Z,1.97
2023-03-12T07:53:01.903Z,2.03
2023-03-12T07:55:28.561Z,2.13
2023-03-12T07:57:58.534Z,2.22
2023-03-12T08:00:25.956Z,2.26
2023-03-12T08:02:53.232Z,2.27
2023-03-12T08:05:20.134Z,2.34
2023-03-12T08:07:46.780Z,2.38
2023-03-12T08:10:13.476Z,2.47
2023-03-12T08:12:40.117Z,2.54
2023-03-12T08:15:08.405Z,2.62
2023-03-12T08:17:35.295Z,2.70
2023-03-12T08:20:01.952Z,2.73
2023-03-12T08:22:28.629Z,2.76
2023-03-12T08:24:55.200Z,2.79
2023-03-12T08:27:21.724Z,2.76
2023-03-12T08:29:48.240Z,2.81
2023-03-12T08:32:14.989Z,2.81
2023-03-12T08:34:41.611Z,2.88
2023-03-12T08:37:08.207Z,2.92
2023-03-12T08:39:34.799Z,2.97
2023-03-12T08:42:01.390Z,2.89
2023-03-12T08:44:27.962Z,2.89
2023-03-12T08:46:54.614Z,2.93
2023-03-12T08:49:21.408Z,2.93
2023-03-12T08:51:48.154Z,2.96
2023-03-12T08:54:14.712Z,3.07
2023-03-12T08:56:43.313Z,3.13
2023-03-12T08:59:13.128Z,3.22
2023-03-12T09:01:41.789Z,3.33
2023-03-12T09:04:10.133Z,3.38
2023-03-12T09:06:36.687Z,3.51
2023-03-12T09:09:05.968Z,3.61
2023-03-12T09:11:33.298Z,3.68
2023-03-12T09:14:39.513Z,3.85
2023-03-12T09:16:49.993Z,3.93
2023-03-12T09:19:16.721Z,3.91
2023-03-12T09:21:43.797Z,3.97
2023-03-12T09:24:10.623Z,4.11
2023-03-12T09:26:37.199Z,4.29
2023-03-12T09:29:03.704Z,4.35
2023-03-12T09:31:30.422Z,4.35
2023-03-12T09:33:57.045Z,4.32
2023-03-12T09:36:23.692Z,4.24
2023-03-12T09:38:50.269Z,4.16
2023-03-12T09:41:27.123Z,4.18
2023-03-12T09:43:58.478Z,4.26
2023-03-12T09:46:37.781Z,4.24
2023-03-12T09:49:06.012Z,4.23
2023-03-12T09:51:36.436Z,4.31
2023-03-12T09:54:03.978Z,4.37
2023-03-12T09:56:30.541Z,4.57
2023-03-12T09:58:57.195Z,4.77
2023-03-12T10:01:26.407Z,4.90
2023-03-12T10:04:11.711Z,4.95
2023-03-12T10:06:53.424Z,5.05
2023-03-12T10:09:30.063Z,5.19
2023-03-12T10:12:19.325Z,5.49
2023-03-12T10:15:04.605Z,5.70
2023-03-12T10:17:40.499Z,5.99
2023-03-12T10:20:22.772Z,6.13
2023-03-12T10:23:09.315Z,6.37
2023-03-12T10:25:46.440Z,6.43
2023-03-12T10:28:20.803Z,6.47
2023-03-12T10:30:57.527Z,6.48
2023-03-12T10:33:24.982Z,6.65
2023-03-12T10:35:51.582Z,6.74
2023-03-12T10:38:19.789Z,6.90
2023-03-12T10:40:46.469Z,7.07
2023-03-12T10:43:13.014Z,7.13
2023-03-12T10:46:05.618Z,7.13
2023-03-12T10:48:32.157Z,7.19
2023-03-12T10:51:04.959Z,7.12
2023-03-12T10:53:32.676Z,7.09
2023-03-12T10:56:00.281Z,7.07
2023-03-12T10:58:30.901Z,6.94
2023-03-12T11:00:58.595Z,6.93
2023-03-12T11:03:25.952Z,6.90
2023-03-12T11:05:53.738Z,6.90
2023-03-12T11:08:35.277Z,6.97
2023-03-12T11:11:02.208Z,6.93
2023-03-12T11:13:38.901Z,6.86
2023-03-12T11:16:17.849Z,6.96
2023-03-12T11:19:03.814Z,7.01
2023-03-12T11:21:31.491Z,7.13
2023-03-12T11:23:58.039Z,7.34
2023-03-12T11:26:25.680Z,7.57
2023-03-12T11:28:53.069Z,7.88
2023-03-12T11:31:19.652Z,8.15
2023-03-12T11:33:46.311Z,8.53
2023-03-12T11:36:28.675Z,8.81
2023-03-12T11:39:07.392Z,9.06
2023-03-12T11:41:33.877Z,9.41
2023-03-12T11:44:00.362Z,9.55
2023-03-12T11:46:32.381Z,9.59
2023-03-12T11:49:02.520Z,9.60
2023-03-12T11:51:38.037Z,9.72
2023-03-12T11:54:07.034Z,9.77
2023-03-12T11:56:37.811Z,9.59
2023-03-12T11:59:04.378Z,9.53
2023-03-12T12:01:34.308Z,9.29
2023-03-12T12:04:04.065Z,9.11
2023-03-12T12:06:39.659Z,8.83
2023-03-12T12:09:09.209Z,8.60
2023-03-12T12:11:54.703Z,8.74
2023-03-12T12:14:25.570Z,8.92
2023-03-12T12:16:58.321Z,8.94
2023-03-12T12:19:24.800Z,8.82
2023-03-12T12:22:03.498Z,8.88
2023-03-12T12:24:50.688Z,8.97
2023-03-12T12:27:21.858Z,9.15
2023-03-12T12:30:06.827Z,9.40
2023-03-12T12:32:42.413Z,9.77
2023-03-12T12:35:20.809Z,10.37
2023-03-12T12:38:09.388Z,10.53
2023-03-12T12:40:41.070Z,10.52
2023-03-12T12:43:10.608Z,10.80
2023-03-12T12:45:38.730Z,10.65
2023-03-12T12:48:06.985Z,10.40
2023-03-12T12:50:35.250Z,10.45
2023-03-12T12:53:22.002Z,10.38
2023-03-12T12:56:21.126Z,10.38
2023-03-12T12:58:53.280Z,10.33
2023-03-12T13:01:19.947Z,10.13
2023-03-12T13:03:46.912Z,10.08
2023-03-12T13:06:13.544Z,10.07
2023-03-12T13:08:40.134Z,10.05
2023-03-12T13:11:18.400Z,9.95
2023-03-12T13:13:49.024Z,10.08
2023-03-12T13:16:18.667Z,9.74
2023-03-12T13:19:01.148Z,9.69
2023-03-12T13:21:39.512Z,9.66
2023-03-12T13:24:24.205Z,9.58
2023-03-12T13:26:56.681Z,9.40
2023-03-12T13:29:28.917Z,9.25
2023-03-12T13:31:55.956Z,9.17
2023-03-12T13:34:23.203Z,9.41
2023-03-12T13:36:53.264Z,9.64
2023-03-12T13:39:28.857Z,9.85
2023-03-12T13:41:55.721Z,10.04
2023-03-12T13:44:38.303Z,10.14
2023-03-12T13:47:10.950Z,10.17
2023-03-12T13:49:48.565Z,10.15
2023-03-12T13:52:19.792Z,10.09
2023-03-12T13:54:47.551Z,10.17
2023-03-12T13:57:30.487Z,10.29
2023-03-12T13:59:57.229Z,10.48
2023-03-12T14:02:28.046Z,10.53
2023-03-12T14:04:56.255Z,10.52
2023-03-12T14:07:42.684Z,10.66
2023-03-12T14:10:09.244Z,10.61
2023-03-12T14:12:35.871Z,10.73
2023-03-12T14:15:08.460Z,10.49
2023-03-12T14:17:35.043Z,10.23
2023-03-12T14:20:08.922Z,10.21
2023-03-12T14:22:43.847Z,10.19
2023-03-12T14:25:16.084Z,10.06
2023-03-12T14:27:44.958Z,9.98
2023-03-12T14:30:12.922Z,9.85
2023-03-12T14:32:39.559Z,9.91
2023-03-12T14:35:22.844Z,9.64
2023-03-12T14:38:05.635Z,9.51
2023-03-12T14:40:44.498Z,9.59
2023-03-12T14:43:30.327Z,9.74
2023-03-12T14:46:01.388Z,9.96
2023-03-12T14:48:34.994Z,10.14
2023-03-12T14:51:02.123Z,10.33
2023-03-12T14:53:30.217Z,10.39
2023-03-12T14:56:00.273Z,10.42
2023-03-12T14:58:26.782Z,10.53
2023-03-12T15:01:00.664Z,10.62
2023-03-12T15:03:27.928Z,10.80
2023-03-12T15:05:54.571Z,10.95
2023-03-12T15:08:21.359Z,10.98
2023-03-12T15:10:54.033Z,11.21
2023-03-12T15:13:21.041Z,11.39
2023-03-12T15:15:48.178Z,11.33
2023-03-12T15:18:18.770Z,11.36
2023-03-12T15:20:46.047Z,11.33
2023-03-12T15:23:13.623Z,11.55
2023-03-12T15:25:41.878Z,11.45
2023-03-12T15:28:08.538Z,11.21
2023-03-12T15:30:35.535Z,11.07
2023-03-12T15:33:06.476Z,10.96
2023-03-12T15:35:33.315Z,10.90
2023-03-12T15:38:00.145Z,10.85
2023-03-12T15:40:27.792Z,10.90
2023-03-12T15:42:59.420Z,10.90
2023-03-12T15:45:28.508Z,10.79
2023-03-12T15:47:55.069Z,10.82
2023-03-12T15:50:38.033Z,10.71
2023-03-12T15:53:06.238Z,10.73
2023-03-12T15:55:34.266Z,10.60
2023-03-12T15:58:00.849Z,10.64
2023-03-12T16:00:27.324Z,10.48
2023-03-12T16:03:00.548Z,10.47
2023-03-12T16:05:31.251Z,10.44
2023-03-12T16:07:57.910Z,10.40
2023-03-12T16:10:24.905Z,10.40
2023-03-12T16:12:51.682Z,10.47
2023-03-12T16:15:21.182Z,10.47
2023-03-12T16:17:47.732Z,10.44
2023-03-12T16:20:14.795Z,10.39
2023-03-12T16:22:43.436Z,10.39
2023-03-12T16:25:12.018Z,10.34
2023-03-12T16:27:40.296Z,10.24
2023-03-12T16:30:07.835Z,10.33
2023-03-12T16:32:34.693Z,10.26
2023-03-12T16:35:01.343Z,10.27
2023-03-12T16:37:28.025Z,10.24
2023-03-12T16:39:54.667Z,10.17
2023-03-12T16:42:21.328Z,10.20
2023-03-12T16:44:47.923Z,10.13
2023-03-12T16:47:14.734Z,10.14
2023-03-12T16:49:41.578Z,10.18
2023-03-12T16:52:18.402Z,10.11
2023-03-12T16:54:44.922Z,10.09
2023-03-12T16:57:27.006Z,10.07
2023-03-12T16:59:54.059Z,10.08
2023-03-12T17:02:21.405Z,10.05
2023-03-12T17:04:48.877Z,10.18
2023-03-12T17:07:15.592Z,10.15
2023-03-12T17:09:42.146Z,10.17
2023-03-12T17:12:12.242Z,10.13
2023-03-12T17:14:38.839Z,10.00
2023-03-12T17:17:05.396Z,9.88
2023-03-12T17:19:31.975Z,9.83
2023-03-12T17:21:58.509Z,9.74
2023-03-12T17:24:28.054Z,9.62
2023-03-12T17:26:55.636Z,9.48
2023-03-12T17:29:22.216Z,9.45
2023-03-12T17:31:48.750Z,9.46
2023-03-12T17:34:15.392Z,9.43
2023-03-12T17:36:42.039Z,9.37
2023-03-12T17:39:08.597Z,9.22
2023-03-12T17:41:35.087Z,9.07
2023-03-12T17:44:03.741Z,8.93
2023-03-12T17:46:30.868Z,8.83
2023-03-12T17:48:57.464Z,8.74
2023-03-12T17:51:24.103Z,8.70
2023-03-12T17:53:50.607Z,8.72
2023-03-12T17:56:18.258Z,8.72
2023-03-12T17:58:45.102Z,8.67
2023-03-12T18:01:13.171Z,8.65
2023-03-12T18:03:40.659Z,8.68
2023-03-12T18:06:07.431Z,8.70
2023-03-12T18:08:33.948Z,8.67
2023-03-12T18:11:01.745Z,8.66
2023-03-12T18:13:28.483Z,8.63
2023-03-12T18:15:56.137Z,8.57
2023-03-12T18:18:23.033Z,8.55
2023-03-12T18:20:49.580Z,8.55
2023-03-12T18:23:16.431Z,8.55
2023-03-12T18:25:42.964Z,8.54
2023-03-12T18:28:09.475Z,8.54
2023-03-12T18:30:36.089Z,8.50
2023-03-12T18:33:02.647Z,8.47
2023-03-12T18:35:30.563Z,8.40
2023-03-12T18:37:57.548Z,8.40
2023-03-12T18:40:24.122Z,8.38
2023-03-12T18:42:50.700Z,8.39
2023-03-12T18:45:17.551Z,8.39
2023-03-12T18:47:45.376Z,8.40
2023-03-12T18:50:12.327Z,8.39
2023-03-12T18:52:38.848Z,8.42
2023-03-12T18:55:05.524Z,8.42
2023-03-12T18:57:32.036Z,8.39
2023-03-12T18:59:59.508Z,8.38
2023-03-12T19:02:26.097Z,8.36
2023-03-12T19:04:55.504Z,8.36
2023-03-12T19:07:22.692Z,8.36
2023-03-12T19:09:49.244Z,8.33
2023-03-12T19:12:15.778Z,8.33
2023-03-12T19:14:42.266Z,8.31
2023-03-12T19:17:08.793Z,8.29
2023-03-12T19:19:35.308Z,8.22
2023-03-12T19:22:01.829Z,8.20
2023-03-12T19:24:28.452Z,8.17
2023-03-12T19:26:55.417Z,8.12
2023-03-12T19:29:21.948Z,8.07
2023-03-12T19:31:48.604Z,8.04
2023-03-12T19:34:17.238Z,8.05
2023-03-12T19:36:43.890Z,8.08
2023-03-12T19:39:20.532Z,8.07
2023-03-12T19:41:49.126Z,8.03
2023-03-12T19:44:15.646Z,8.03
2023-03-12T19:46:43.318Z,8.04
2023-03-12T19:49:09.880Z,8.01
2023-03-12T19:51:36.458Z,7.93
2023-03-12T19:54:03.696Z,7.90
2023-03-12T19:56:32.278Z,7.89
2023-03-12T19:58:58.896Z,7.91
2023-03-12T20:01:25.671Z,7.94
2023-03-12T20:03:52.202Z,7.90
2023-03-12T20:06:18.781Z,7.94
2023-03-12T20:08:45.785Z,7.97
2023-03-12T20:11:12.318Z,8.01
2023-03-12T20:13:38.899Z,8.03
2023-03-12T20:16:06.836Z,8.03
2023-03-12T20:18:33.493Z,8.09
2023-03-12T20:21:00.132Z,8.08
2023-03-12T20:23:26.703Z,8.09
2023-03-12T20:25:53.626Z,8.08
2023-03-12T20:28:20.227Z,8.06
2023-03-12T20:30:46.789Z,8.08
2023-03-12T20:33:14.613Z,8.10
2023-03-12T20:35:43.811Z,8.16
2023-03-12T20:38:12.968Z,8.22
2023-03-12T20:40:39.446Z,8.26
2023-03-12T20:43:06.105Z,8.32
2023-03-12T20:45:32.805Z,8.35
2023-03-12T20:47:59.472Z,8.37
2023-03-12T20:50:26.358Z,8.36
2023-03-12T20:52:55.963Z,8.41
2023-03-12T20:55:22.557Z,8.41
2023-03-12T20:57:53.374Z,8.45
2023-03-12T21:00:23.073Z,8.50
2023-03-12T21:02:50.050Z,8.52
2023-03-12T21:05:17.565Z,8.51
2023-03-12T21:07:44.430Z,8.57
2023-03-12T21:10:11.805Z,8.66
2023-03-12T21:12:39.764Z,8.63
2023-03-12T21:15:10.200Z,8.63
2023-03-12T21:17:37.837Z,8.62
2023-03-12T21:20:05.203Z,8.68
2023-03-12T21:22:32.434Z,8.69
2023-03-12T21:24:58.979Z,8.71
2023-03-12T21:27:29.492Z,8.63
2023-03-12T21:30:01.034Z,8.67
2023-03-12T21:32:27.623Z,8.68
2023-03-12T21:34:54.168Z,8.76
2023-03-12T21:37:20.680Z,8.78
2023-03-12T21:39:47.233Z,8.71
2023-03-12T21:42:13.762Z,8.65
2023-03-12T21:44:40.382Z,8.64
2023-03-12T21:47:07.144Z,8.66
2023-03-12T21:49:36.849Z,8.64
2023-03-12T21:52:06.663Z,8.52
2023-03-12T21:54:34.324Z,8.49
2023-03-12T21:57:02.827Z,8.40
2023-03-12T21:59:29.979Z,8.31
2023-03-12T22:01:56.757Z,8.22
2023-03-12T22:04:23.811Z,8.17
2023-03-12T22:06:50.654Z,8.17
2023-03-12T22:09:17.450Z,8.21
2023-03-12T22:11:43.938Z,8.17
2023-03-12T22:14:10.559Z,8.22
2023-03-12T22:16:37.067Z,8.12
2023-03-12T22:19:03.762Z,8.05
2023-03-12T22:21:30.267Z,7.99
2023-03-12T22:23:57.425Z,7.95
2023-03-12T22:26:25.154Z,7.89
2023-03-12T22:28:52.483Z,7.83
2023-03-12T22:31:19.418Z,7.77
2023-03-12T22:33:46.056Z,7.77
2023-03-12T22:36:13.592Z,7.72
2023-03-12T22:38:40.163Z,7.70
2023-03-12T22:41:13.709Z,7.70
2023-03-12T22:43:40.298Z,7.66
2023-03-12T22:46:06.879Z,7.60
2023-03-12T22:48:33.482Z,7.62
2023-03-12T22:51:00.080Z,7.61
2023-03-12T22:53:26.655Z,7.53
2023-03-12T22:55:59.872Z,7.53
2023-03-12T22:58:26.604Z,7.51
2023-03-12T23:01:02.818Z,7.50
2023-03-12T23:03:29.755Z,7.50
2023-03-12T23:05:56.351Z,7.48
2023-03-12T23:08:22.902Z,7.44
2023-03-12T23:10:59.868Z,7.46
2023-03-12T23:13:26.964Z,7.45
2023-03-12T23:15:53.515Z,7.44
2023-03-12T23:18:20.098Z,7.44
2023-03-12T23:20:46.780Z,7.43
2023-03-12T23:23:15.665Z,7.43
2023-03-12T23:25:42.160Z,7.39
2023-03-12T23:28:08.722Z,7.36
2023-03-12T23:30:35.592Z,7.37
2023-03-12T23:33:03.496Z,7.35
2023-03-12T23:35:31.067Z,7.37
2023-03-12T23:37:57.776Z,7.36
2023-03-12T23:40:24.259Z,7.37
2023-03-12T23:42:51.092Z,7.32
2023-03-12T23:45:17.607Z,7.29
2023-03-12T23:47:44.109Z,7.30
2023-03-12T23:50:11.000Z,7.26
2023-03-12T23:52:37.489Z,7.29
2023-03-12T23:55:04.100Z,7.28
2023-03-12T23:57:30.598Z,7.35
2023-03-12T23:59:57.394Z,7.37
